METAR Data
IDs: Format: Raw Decoded Include TAF

Data at: 0346 UTC 06 Dec 2019

METAR for:KFOD (Fort Dodge Rgnl, IA, US)
Text:KFOD 060307Z AUTO 34010G16KT 10SM BKN010 00/M02 A3006 RMK AO2 CIG 009V014 FZRANO
Temperature: 0.0°C ( 32°F)
Dewpoint: -2.0°C ( 28°F) [RH = 86%]
Pressure (altimeter):30.06 inches Hg (1018.0 mb)
Winds:from the NNW (340 degrees) at 12 MPH (10 knots; 5.1 m/s) gusting to 18 MPH (16 knots; 8.2 m/s)
Visibility:10 or more sm (16+ km)
Ceiling:1000 feet AGL
Clouds: broken clouds at 1000 feet AGL
QC Flag:automated observation with no human augmentation